(°C)
13°
13°
13°
12°
11°
10°
(°C)
ZJZ
ZJZ
ZJZ
ZJZ
ZJZ
ZJZ
ZJZ
(km/h)
18-38
18-38
18-36
16-34
13-32
11-29
8-23
(mm)
0
0
0
0
0
0
0
(%)
1
1
1
1
1
1
1

Sluneční výška

/ 33.6°
sun-icon
UV 3
06:50
19:28
Dorůstající měsíc (149°)
19:14
02:34

METAR pro 55.27°S 86.11°V (UNEE)

Čas Podmínky Teplota/
Rosný bod
Vítr Viditelnost Počasí Oblaky Tlak Změna Nezpracované
MVFR 13°C / 6°C 200º 10kt >10km - Broken Clouds 2700ft 1006 No Significant change UNEE 180700Z 20005MPS 9999 BKN027CB 13/06 Q1006 R23/CLRD60 NOSIG RMK QFE732
VFR 13°C / 5°C 220º 14kt >10km - Broken Clouds 4300ft 1006 No Significant change UNEE 180630Z 22007MPS 9999 BKN043CB 13/05 Q1006 R23/CLRD60 NOSIG RMK QFE732
MVFR 13°C / 6°C 230º 10kt >10km - Broken Clouds 2600ft 1006 No Significant change UNEE 180600Z 23005MPS 9999 BKN026CB 13/06 Q1006 R23/CLRD60 NOSIG RMK QFE732
VFR 12°C / 5°C 210º 10kt >10km - Broken Clouds 4000ft 1006 No Significant change UNEE 180530Z 21005MPS 9999 BKN040CB 12/05 Q1006 R23/CLRD60 NOSIG RMK QFE731
MVFR 13°C / 5°C 230º 12kt >10km - Broken Clouds 2600ft 1005 No Significant change UNEE 180500Z 23006MPS 9999 BKN026CB 13/05 Q1005 R23/CLRD60 NOSIG RMK QFE731
MVFR 13°C / 6°C 250º 12kt >10km - Broken Clouds 2600ft 1005 No Significant change UNEE 180430Z 25006MPS 9999 BKN026CB 13/06 Q1005 R23/CLRD60 NOSIG RMK QFE731
MVFR 11°C / 6°C 240º 12kt >10km - Broken Clouds 2600ft 1005 No Significant change UNEE 180400Z 24006MPS 9999 BKN026CB 11/06 Q1005 R23/CLRD60 NOSIG RMK QFE731
MVFR 11°C / 6°C 240º 12kt >10km - Broken Clouds 1900ft 1004 No Significant change UNEE 180330Z 24006MPS 9999 BKN019CB 11/06 Q1004 R23/CLRD60 NOSIG RMK QFE730
MVFR 11°C / 7°C 250º 10kt >10km - Broken Clouds 1600ft 1004 No Significant change UNEE 180300Z 25005MPS 9999 BKN016CB 11/07 Q1004 R23/CLRD60 NOSIG RMK QFE730
MVFR 10°C / 6°C 260º 12kt >10km - Broken Clouds 1700ft 1003 No Significant change UNEE 180230Z 26006MPS 9999 BKN017CB 10/06 Q1003 R23/CLRD60 NOSIG RMK QFE729
VFR 11°C / 7°C 260º 10kt >10km - Broken Clouds 4300ft 1002 No Significant change UNEE 180200Z 26005MPS 9999 BKN043 11/07 Q1002 R23/CLRD60 NOSIG RMK QFE729
MVFR 11°C / 8°C 270º 10kt >10km - Broken Clouds 2800ft 1001 No Significant change UNEE 180130Z 27005MPS 9999 BKN028 11/08 Q1001 R23/CLRD60 NOSIG RMK QFE728
MVFR 12°C / 10°C 230º 8kt >10km - Broken Clouds 1500ft 1000 No Significant change UNEE 180100Z 23004MPS 9999 BKN015 12/10 Q1000 R23/CLRD60 NOSIG RMK QFE727
MVFR 12°C / 10°C 240º 10kt >10km - Broken Clouds 2000ft 1000 No Significant change UNEE 180030Z 24005MPS 9999 BKN020 12/10 Q1000 R23/CLRD60 NOSIG RMK QFE727
VFR 12°C / 10°C 250º 8kt >10km - Scattered Clouds 2000ft 998 No Significant change UNEE 180000Z 25004MPS 9999 SCT020 12/10 Q0998 R23/CLRD60 NOSIG RMK QFE726
VFR 13°C / 9°C 270º 10kt >10km - Scattered Clouds 4600ft 998 No Significant change UNEE 172330Z 27005MPS 9999 SCT046 13/09 Q0998 R23/CLRD60 NOSIG RMK QFE726
VFR 15°C / 7°C 240º 16kt >10km - Broken Clouds 4000ft 997 No Significant change UNEE 172300Z 24008MPS 9999 BKN040CB 15/07 Q0997 R23/CLRD60 NOSIG RMK QFE725
VFR 17°C / 6°C 210º 12kt >10km Light Showers Rain 3.00mm precipitation Vertical Visibility of 0ft. 996 No Significant change UNEE 172230Z 21006MPS 9999 -SHRA BKN040CB 17/06 Q0996 R23/CLRD60 NOSIG RMK QFE724
VFR 17°C / 6°C 180º 10kt >10km Light Showers Rain 3.00mm precipitation Vertical Visibility of 0ft. 995 No Significant change UNEE 172200Z 18005MPS 9999 -SHRA BKN040CB 17/06 Q0995 R23/CLRD60 NOSIG RMK QFE724
VFR 16°C / 6°C 200º 6kt >10km - Scattered Clouds 4000ft 995 No Significant change UNEE 172130Z 20003MPS 9999 SCT040CB 16/06 Q0995 R05/CLRD60 NOSIG RMK QFE724
VFR 15°C / 6°C 120º 6kt >10km Light Showers Rain 3.00mm precipitation Vertical Visibility of 0ft. 995 No Significant change UNEE 172100Z 12003MPS 9999 -SHRA SCT040CB 15/06 Q0995 R23/CLRD60 NOSIG RMK QFE723
VFR 16°C / 6°C 130º 6kt >10km - Scattered Clouds 4000ft 995 No Significant change UNEE 172030Z 13003MPS 9999 SCT040 16/06 Q0995 R23/CLRD60 NOSIG RMK QFE724
VFR 16°C / 5°C 160º 4kt >10km - Scattered Clouds 4000ft 996 No Significant change UNEE 172000Z 16002MPS 9999 SCT040 16/05 Q0996 R23/CLRD60 NOSIG RMK QFE724
VFR 17°C / 5°C 210º variable 170º to 260º 8kt >10km - Scattered Clouds 4000ft 996 No Significant change UNEE 171930Z 21004MPS 170V260 9999 SCT040 17/05 Q0996 R23/CLRD60 NOSIG RMK QFE725

MVFR

13°C / 6°C

[Víc]
Vítr 200º 10kt
Viditelnost >10km
Počasí -
Oblaky Broken Clouds 2700ft
Tlak 1006
Změna No Significant change
Nezpracované UNEE 180700Z 20005MPS 9999 BKN027CB 13/06 Q1006 R23/CLRD60 NOSIG RMK QFE732

VFR

13°C / 5°C

[Víc]
Vítr 220º 14kt
Viditelnost >10km
Počasí -
Oblaky Broken Clouds 4300ft
Tlak 1006
Změna No Significant change
Nezpracované UNEE 180630Z 22007MPS 9999 BKN043CB 13/05 Q1006 R23/CLRD60 NOSIG RMK QFE732

MVFR

13°C / 6°C

[Víc]
Vítr 230º 10kt
Viditelnost >10km
Počasí -
Oblaky Broken Clouds 2600ft
Tlak 1006
Změna No Significant change
Nezpracované UNEE 180600Z 23005MPS 9999 BKN026CB 13/06 Q1006 R23/CLRD60 NOSIG RMK QFE732

VFR

12°C / 5°C

[Víc]
Vítr 210º 10kt
Viditelnost >10km
Počasí -
Oblaky Broken Clouds 4000ft
Tlak 1006
Změna No Significant change
Nezpracované UNEE 180530Z 21005MPS 9999 BKN040CB 12/05 Q1006 R23/CLRD60 NOSIG RMK QFE731

MVFR

13°C / 5°C

[Víc]
Vítr 230º 12kt
Viditelnost >10km
Počasí -
Oblaky Broken Clouds 2600ft
Tlak 1005
Změna No Significant change
Nezpracované UNEE 180500Z 23006MPS 9999 BKN026CB 13/05 Q1005 R23/CLRD60 NOSIG RMK QFE731

MVFR

13°C / 6°C

[Víc]
Vítr 250º 12kt
Viditelnost >10km
Počasí -
Oblaky Broken Clouds 2600ft
Tlak 1005
Změna No Significant change
Nezpracované UNEE 180430Z 25006MPS 9999 BKN026CB 13/06 Q1005 R23/CLRD60 NOSIG RMK QFE731

MVFR

11°C / 6°C

[Víc]
Vítr 240º 12kt
Viditelnost >10km
Počasí -
Oblaky Broken Clouds 2600ft
Tlak 1005
Změna No Significant change
Nezpracované UNEE 180400Z 24006MPS 9999 BKN026CB 11/06 Q1005 R23/CLRD60 NOSIG RMK QFE731

MVFR

11°C / 6°C

[Víc]
Vítr 240º 12kt
Viditelnost >10km
Počasí -
Oblaky Broken Clouds 1900ft
Tlak 1004
Změna No Significant change
Nezpracované UNEE 180330Z 24006MPS 9999 BKN019CB 11/06 Q1004 R23/CLRD60 NOSIG RMK QFE730

MVFR

11°C / 7°C

[Víc]
Vítr 250º 10kt
Viditelnost >10km
Počasí -
Oblaky Broken Clouds 1600ft
Tlak 1004
Změna No Significant change
Nezpracované UNEE 180300Z 25005MPS 9999 BKN016CB 11/07 Q1004 R23/CLRD60 NOSIG RMK QFE730

MVFR

10°C / 6°C

[Víc]
Vítr 260º 12kt
Viditelnost >10km
Počasí -
Oblaky Broken Clouds 1700ft
Tlak 1003
Změna No Significant change
Nezpracované UNEE 180230Z 26006MPS 9999 BKN017CB 10/06 Q1003 R23/CLRD60 NOSIG RMK QFE729

VFR

11°C / 7°C

[Víc]
Vítr 260º 10kt
Viditelnost >10km
Počasí -
Oblaky Broken Clouds 4300ft
Tlak 1002
Změna No Significant change
Nezpracované UNEE 180200Z 26005MPS 9999 BKN043 11/07 Q1002 R23/CLRD60 NOSIG RMK QFE729

MVFR

11°C / 8°C

[Víc]
Vítr 270º 10kt
Viditelnost >10km
Počasí -
Oblaky Broken Clouds 2800ft
Tlak 1001
Změna No Significant change
Nezpracované UNEE 180130Z 27005MPS 9999 BKN028 11/08 Q1001 R23/CLRD60 NOSIG RMK QFE728

MVFR

12°C / 10°C

[Víc]
Vítr 230º 8kt
Viditelnost >10km
Počasí -
Oblaky Broken Clouds 1500ft
Tlak 1000
Změna No Significant change
Nezpracované UNEE 180100Z 23004MPS 9999 BKN015 12/10 Q1000 R23/CLRD60 NOSIG RMK QFE727

MVFR

12°C / 10°C

[Víc]
Vítr 240º 10kt
Viditelnost >10km
Počasí -
Oblaky Broken Clouds 2000ft
Tlak 1000
Změna No Significant change
Nezpracované UNEE 180030Z 24005MPS 9999 BKN020 12/10 Q1000 R23/CLRD60 NOSIG RMK QFE727

VFR

12°C / 10°C

[Víc]
Vítr 250º 8kt
Viditelnost >10km
Počasí -
Oblaky Scattered Clouds 2000ft
Tlak 998
Změna No Significant change
Nezpracované UNEE 180000Z 25004MPS 9999 SCT020 12/10 Q0998 R23/CLRD60 NOSIG RMK QFE726

VFR

13°C / 9°C

[Víc]
Vítr 270º 10kt
Viditelnost >10km
Počasí -
Oblaky Scattered Clouds 4600ft
Tlak 998
Změna No Significant change
Nezpracované UNEE 172330Z 27005MPS 9999 SCT046 13/09 Q0998 R23/CLRD60 NOSIG RMK QFE726

VFR

15°C / 7°C

[Víc]
Vítr 240º 16kt
Viditelnost >10km
Počasí -
Oblaky Broken Clouds 4000ft
Tlak 997
Změna No Significant change
Nezpracované UNEE 172300Z 24008MPS 9999 BKN040CB 15/07 Q0997 R23/CLRD60 NOSIG RMK QFE725

VFR

17°C / 6°C

[Víc]
Vítr 210º 12kt
Viditelnost >10km
Počasí Light Showers Rain 3.00mm precipitation
Oblaky Vertical Visibility of 0ft.
Tlak 996
Změna No Significant change
Nezpracované UNEE 172230Z 21006MPS 9999 -SHRA BKN040CB 17/06 Q0996 R23/CLRD60 NOSIG RMK QFE724

VFR

17°C / 6°C

[Víc]
Vítr 180º 10kt
Viditelnost >10km
Počasí Light Showers Rain 3.00mm precipitation
Oblaky Vertical Visibility of 0ft.
Tlak 995
Změna No Significant change
Nezpracované UNEE 172200Z 18005MPS 9999 -SHRA BKN040CB 17/06 Q0995 R23/CLRD60 NOSIG RMK QFE724

VFR

16°C / 6°C

[Víc]
Vítr 200º 6kt
Viditelnost >10km
Počasí -
Oblaky Scattered Clouds 4000ft
Tlak 995
Změna No Significant change
Nezpracované UNEE 172130Z 20003MPS 9999 SCT040CB 16/06 Q0995 R05/CLRD60 NOSIG RMK QFE724

VFR

15°C / 6°C

[Víc]
Vítr 120º 6kt
Viditelnost >10km
Počasí Light Showers Rain 3.00mm precipitation
Oblaky Vertical Visibility of 0ft.
Tlak 995
Změna No Significant change
Nezpracované UNEE 172100Z 12003MPS 9999 -SHRA SCT040CB 15/06 Q0995 R23/CLRD60 NOSIG RMK QFE723

VFR

16°C / 6°C

[Víc]
Vítr 130º 6kt
Viditelnost >10km
Počasí -
Oblaky Scattered Clouds 4000ft
Tlak 995
Změna No Significant change
Nezpracované UNEE 172030Z 13003MPS 9999 SCT040 16/06 Q0995 R23/CLRD60 NOSIG RMK QFE724

VFR

16°C / 5°C

[Víc]
Vítr 160º 4kt
Viditelnost >10km
Počasí -
Oblaky Scattered Clouds 4000ft
Tlak 996
Změna No Significant change
Nezpracované UNEE 172000Z 16002MPS 9999 SCT040 16/05 Q0996 R23/CLRD60 NOSIG RMK QFE724

VFR

17°C / 5°C

[Víc]
Vítr 210º variable 170º to 260º 8kt
Viditelnost >10km
Počasí -
Oblaky Scattered Clouds 4000ft
Tlak 996
Změna No Significant change
Nezpracované UNEE 171930Z 21004MPS 170V260 9999 SCT040 17/05 Q0996 R23/CLRD60 NOSIG RMK QFE725

TAF pro 55.27°S 86.11°V (UNEE)

From till


From till Wind 230º 14kt. Gust 27kt. Visibility 10km or more. Broken Clouds 4000ft.
Becoming from till Wind 190º 6kt. Gust 16kt. Visibility 10km or more. Broken Clouds 4000ft.

Nezpracované: TAF UNEE 180500Z 1806/1906 23007G14MPS 9999 BKN040CB BECMG 1812/1815 19003G08MPS

Aktuální snímky ze satelitu a srážky pro 55.27°S 86.11°V

Značka polohy je umístěna na 55.27°S 86.11°V. [Víc]

Satelitní snímek v reálném čase kombinuje viditelné světlo během dne s infračerveným zářením během noci. V noci není obraz tmavý, protože infračervené záření dokáže detekovat teplotní rozdíly. Nízká oblačnost a mlha se bohužel těžko odlišují od pozemních teplot, a proto mohou být během noci téměř neviditelné. Satelitní snímky z Meteosatu pro Evropu jsou aktualizovány v reálném čase každých 5 minut. Snímky z GOES-16/GOES-17 (Severní a Jižní Amerika) a Himawari (Asie) jsou aktualizovány) každých 10 minut.

Copyright 2021 EUMETSAT / meteoblue. / Copyright 2021 meteoblue

Radar a krátkodobá předpověď srážek pro 55.27°S 86.11°V

Mrholení
Slabé
Mírná
Silné
Velmi silné
Kroupy

Značka lokality je umístněna na 55.27°S 86.11°V. Tato animace ukazuje srážky zaznamenané radarem za poslední hodinu a také 1h předpověď. Mrholení nebo slabé sněžení může být pro radar neviditelné. Intenzita srážek je barevně označena od světle modré po oranžovou.